Time;durP1;ratioP1;P1;durP2;ratioP2;P2;SDS_P1;SDS_P2;PMS_P1;PMS_P2;Temp;Humidity;BMP_temperature;BMP_pressure;BME280_temperature;BME280_humidity;BME280_pressure;Samples;Min_cycle;Max_cycle;Signal;HPM_P1;HPM_P2
2022/10/06 00:02:05;;;;;;;6.47;3.97;;;23.50;54.50;;;;;;7678036;22;80794;-58
2022/10/06 00:05:05;;;;;;;5.30;3.95;;;23.50;54.50;;;;;;7678467;22;80719;-57
2022/10/06 00:08:06;;;;;;;5.03;3.58;;;23.50;54.40;;;;;;7679447;22;80198;-59
2022/10/06 00:11:06;;;;;;;4.55;3.70;;;23.50;54.40;;;;;;7679086;22;80831;-58
2022/10/06 00:14:07;;;;;;;4.38;3.40;;;23.50;54.50;;;;;;7676241;22;80272;-59
2022/10/06 00:17:08;;;;;;;5.40;3.55;;;23.50;54.40;;;;;;7680522;22;81046;-58
2022/10/06 00:20:08;;;;;;;6.28;3.65;;;23.50;54.50;;;;;;7678998;22;80149;-58
2022/10/06 00:23:09;;;;;;;5.65;3.92;;;23.50;54.50;;;;;;7680469;22;80616;-58
2022/10/06 00:26:09;;;;;;;5.72;3.50;;;23.50;54.50;;;;;;7677937;22;80249;-59
2022/10/06 00:29:12;;;;;;;6.07;3.80;;;23.50;54.50;;;;;;7677621;22;80237;-58
2022/10/06 00:32:13;;;;;;;4.32;3.17;;;23.50;54.60;;;;;;7653217;22;82645;-59
2022/10/06 00:35:14;;;;;;;6.07;3.80;;;23.50;54.50;;;;;;7679085;22;85081;-58
2022/10/06 00:38:14;;;;;;;4.40;3.60;;;23.40;54.40;;;;;;7651492;22;81050;-57
2022/10/06 00:41:15;;;;;;;5.50;3.35;;;23.40;54.50;;;;;;7679802;22;81599;-58
2022/10/06 00:44:16;;;;;;;5.60;3.60;;;23.40;54.40;;;;;;7677377;22;80477;-58
2022/10/06 00:47:16;;;;;;;4.70;3.17;;;23.40;54.40;;;;;;7651453;22;81191;-58
2022/10/06 00:50:17;;;;;;;4.03;3.30;;;23.40;54.40;;;;;;7677674;22;80937;-59
2022/10/06 00:53:17;;;;;;;4.32;3.35;;;23.40;54.30;;;;;;7676668;22;80055;-58
2022/10/06 00:56:18;;;;;;;4.35;3.08;;;23.40;54.40;;;;;;7652116;22;81523;-58
2022/10/06 00:59:19;;;;;;;5.22;3.40;;;23.40;54.30;;;;;;7678010;22;83117;-58
2022/10/06 01:02:19;;;;;;;3.95;3.40;;;23.40;54.30;;;;;;7677518;22;79877;-58
2022/10/06 01:05:21;;;;;;;3.10;2.80;;;23.40;54.30;;;;;;7652486;22;83677;-57
2022/10/06 01:08:21;;;;;;;5.38;3.42;;;23.40;54.20;;;;;;7682368;22;80678;-59
2022/10/06 01:11:22;;;;;;;4.30;3.17;;;23.40;54.20;;;;;;7679470;22;80815;-59
2022/10/06 01:14:23;;;;;;;4.43;3.30;;;23.40;54.10;;;;;;7680805;22;81355;-58
2022/10/06 01:17:24;;;;;;;3.42;3.00;;;23.40;54.10;;;;;;7673881;22;81966;-60
2022/10/06 01:20:24;;;;;;;4.25;3.42;;;23.40;54.10;;;;;;7681736;22;80328;-59
2022/10/06 01:23:25;;;;;;;3.70;2.67;;;23.40;54.30;;;;;;7680776;22;80464;-60
2022/10/06 01:26:25;;;;;;;9.00;3.72;;;23.40;54.20;;;;;;7654629;22;81503;-60
2022/10/06 01:29:26;;;;;;;5.18;3.50;;;23.40;54.40;;;;;;7652835;22;83353;-60
2022/10/06 01:32:27;;;;;;;4.20;3.13;;;23.40;54.30;;;;;;7653210;22;82845;-60
2022/10/06 01:35:28;;;;;;;7.32;3.47;;;23.40;54.20;;;;;;7625150;22;83671;-55
2022/10/06 01:38:28;;;;;;;3.75;2.75;;;23.40;54.10;;;;;;7655275;22;83222;-57
2022/10/06 01:41:34;;;;;;;5.18;3.10;;;23.40;54.30;;;;;;7653989;22;83277;-58
2022/10/06 01:44:36;;;;;;;3.25;2.67;;;23.40;54.20;;;;;;7649892;22;81541;-59
2022/10/06 01:47:37;;;;;;;5.32;3.60;;;23.40;54.20;;;;;;7678962;22;80664;-59
2022/10/06 01:50:37;;;;;;;6.20;3.55;;;23.40;54.10;;;;;;7681426;22;80486;-58
2022/10/06 01:53:38;;;;;;;3.65;3.00;;;23.40;54.20;;;;;;7653276;22;80837;-60
2022/10/06 01:56:38;;;;;;;5.32;3.72;;;23.40;54.20;;;;;;7651872;22;83390;-45
2022/10/06 01:59:39;;;;;;;4.40;3.22;;;23.40;54.20;;;;;;7677810;22;80440;-46
2022/10/06 02:02:40;;;;;;;5.78;3.40;;;23.40;54.20;;;;;;7651680;22;82576;-48
2022/10/06 02:05:40;;;;;;;4.18;3.40;;;23.40;54.20;;;;;;7652517;22;83120;-47
2022/10/06 02:08:41;;;;;;;4.25;3.38;;;23.30;54.20;;;;;;7652450;22;83006;-47
2022/10/06 02:11:41;;;;;;;6.15;3.47;;;23.40;54.20;;;;;;7650063;22;83716;-46
2022/10/06 02:14:42;;;;;;;5.70;3.58;;;23.40;54.20;;;;;;7650335;22;82922;-49
2022/10/06 02:17:43;;;;;;;6.43;3.10;;;23.30;54.10;;;;;;7652297;22;82685;-59
2022/10/06 02:20:43;;;;;;;5.53;3.70;;;23.40;54.10;;;;;;7677870;22;80024;-59
2022/10/06 02:23:46;;;;;;;4.60;3.25;;;23.40;54.00;;;;;;7652746;22;81792;-59
2022/10/06 02:26:47;;;;;;;4.53;3.50;;;23.30;54.00;;;;;;7651380;22;82800;-58
2022/10/06 02:29:48;;;;;;;5.55;3.60;;;23.30;53.90;;;;;;7653961;22;82964;-58
2022/10/06 02:32:49;;;;;;;5.50;3.45;;;23.30;53.90;;;;;;7652230;22;83585;-59
2022/10/06 02:35:50;;;;;;;4.45;3.35;;;23.40;53.90;;;;;;7680709;22;80580;-56
2022/10/06 02:38:50;;;;;;;5.20;3.60;;;23.40;54.00;;;;;;7679564;22;79959;-58
2022/10/06 02:41:52;;;;;;;4.00;3.15;;;23.30;53.90;;;;;;7651547;22;83158;-57
2022/10/06 02:44:53;;;;;;;6.18;3.78;;;23.30;54.00;;;;;;7652906;22;82816;-59
2022/10/06 02:47:54;;;;;;;5.88;3.60;;;23.40;54.00;;;;;;7653928;22;83531;-58
2022/10/06 02:50:54;;;;;;;7.00;3.97;;;23.40;54.00;;;;;;7652714;22;82754;-58
2022/10/06 02:53:55;;;;;;;3.95;3.30;;;23.40;54.00;;;;;;7649558;22;82976;-58
2022/10/06 02:56:56;;;;;;;4.60;3.45;;;23.30;53.90;;;;;;7651724;22;80395;-58
2022/10/06 02:59:57;;;;;;;5.82;3.95;;;23.30;54.00;;;;;;7654805;22;82659;-58
2022/10/06 03:02:58;;;;;;;5.32;4.05;;;23.30;53.90;;;;;;7679268;22;80369;-58
2022/10/06 03:05:59;;;;;;;7.13;3.67;;;23.30;54.00;;;;;;7650773;22;81975;-59
2022/10/06 03:09:00;;;;;;;5.93;3.70;;;23.40;54.00;;;;;;7653647;22;82906;-59
2022/10/06 03:12:01;;;;;;;5.00;3.60;;;23.30;54.00;;;;;;7650222;22;83165;-59
2022/10/06 03:15:10;;;;;;;5.63;3.92;;;23.30;54.00;;;;;;7681194;22;79900;-59
2022/10/06 03:18:11;;;;;;;5.85;3.85;;;23.30;53.90;;;;;;7652642;22;83076;-59
2022/10/06 03:21:13;;;;;;;6.75;3.72;;;23.40;54.00;;;;;;7679132;22;80252;-59
2022/10/06 03:24:14;;;;;;;5.45;3.75;;;23.40;53.90;;;;;;7654510;22;81886;-59
2022/10/06 03:27:17;;;;;;;4.70;3.72;;;23.40;53.90;;;;;;7652696;22;83123;-59
2022/10/06 03:30:18;;;;;;;4.80;4.00;;;23.40;53.40;;;;;;7652265;22;81602;-59
2022/10/06 03:33:19;;;;;;;5.60;3.80;;;23.40;53.60;;;;;;7653920;22;83118;-60
2022/10/06 03:36:21;;;;;;;6.65;4.07;;;23.30;53.70;;;;;;7651604;22;80539;-60
2022/10/06 03:39:21;;;;;;;6.32;3.83;;;23.40;53.70;;;;;;7651060;22;83303;-59
2022/10/06 03:42:23;;;;;;;4.88;3.80;;;23.30;53.70;;;;;;7675702;22;81888;-59
2022/10/06 03:45:26;;;;;;;5.65;4.40;;;23.30;53.70;;;;;;7646136;22;80490;-59
2022/10/06 03:48:26;;;;;;;6.53;4.22;;;23.40;53.80;;;;;;7677940;22;81143;-46
2022/10/06 03:51:28;;;;;;;6.15;4.07;;;23.40;53.60;;;;;;7677376;22;80460;-46
2022/10/06 03:54:29;;;;;;;6.82;4.25;;;23.40;53.60;;;;;;7646768;22;83177;-46
2022/10/06 03:57:30;;;;;;;5.75;4.13;;;23.50;53.50;;;;;;7645666;22;83109;-47
2022/10/06 04:00:31;;;;;;;6.72;4.20;;;23.50;53.60;;;;;;7649683;22;82043;-44
2022/10/06 04:03:32;;;;;;;7.57;3.90;;;23.50;53.70;;;;;;7677453;22;80532;-48
2022/10/06 04:06:33;;;;;;;9.93;4.35;;;23.60;53.90;;;;;;7644538;22;81711;-49
2022/10/06 04:09:33;;;;;;;5.85;3.88;;;23.60;54.20;;;;;;7668530;22;81055;-53
2022/10/06 04:12:35;;;;;;;9.13;4.63;;;23.60;54.30;;;;;;7637568;22;83246;-54
2022/10/06 04:15:36;;;;;;;7.32;4.13;;;23.70;54.50;;;;;;7641939;22;82728;-58
2022/10/06 04:18:37;;;;;;;16.00;4.45;;;23.60;54.60;;;;;;7648824;22;83221;-55
2022/10/06 04:21:37;;;;;;;13.55;4.32;;;23.70;54.60;;;;;;7649287;22;81360;-59
2022/10/06 04:24:40;;;;;;;9.90;4.10;;;23.70;54.80;;;;;;7649175;22;83394;-55
2022/10/06 04:27:41;;;;;;;21.63;4.70;;;23.70;55.20;;;;;;7678245;22;80323;-58
2022/10/06 04:30:45;;;;;;;9.75;4.07;;;23.70;55.20;;;;;;7652282;22;83201;-58
2022/10/06 04:33:45;;;;;;;13.07;4.25;;;23.70;55.40;;;;;;7649421;22;81423;-59
2022/10/06 04:36:47;;;;;;;11.20;4.15;;;23.80;55.20;;;;;;7648878;22;80398;-62
2022/10/06 04:39:50;;;;;;;4.63;3.42;;;23.80;55.40;;;;;;7629053;22;81793;-62
2022/10/06 04:42:52;;;;;;;5.95;4.40;;;23.80;55.10;;;;;;7651897;22;83307;-53
2022/10/06 04:45:52;;;;;;;10.63;4.47;;;23.80;55.00;;;;;;7648274;22;83502;-53
2022/10/06 04:48:53;;;;;;;5.90;4.30;;;23.90;55.00;;;;;;7682042;22;80180;-51
2022/10/06 04:51:56;;;;;;;8.32;4.07;;;23.80;54.80;;;;;;7648705;22;81609;-52
2022/10/06 04:54:58;;;;;;;13.38;4.90;;;23.80;54.70;;;;;;7650170;22;82826;-56
2022/10/06 04:57:59;;;;;;;8.68;4.60;;;23.90;54.80;;;;;;7650712;22;83219;-55
2022/10/06 05:01:00;;;;;;;14.40;4.80;;;23.80;54.70;;;;;;7647391;22;82688;-49
2022/10/06 05:04:00;;;;;;;8.63;4.30;;;23.80;54.70;;;;;;7649000;22;83030;-45
2022/10/06 05:07:03;;;;;;;10.02;4.57;;;23.80;54.50;;;;;;7651478;22;83089;-45
2022/10/06 05:10:04;;;;;;;8.90;4.65;;;23.70;54.60;;;;;;7655786;22;82716;-44
2022/10/06 05:13:05;;;;;;;9.07;4.80;;;23.70;54.50;;;;;;7650668;22;82276;-45
2022/10/06 05:16:06;;;;;;;7.82;4.22;;;23.80;54.30;;;;;;7652347;22;82725;-46
2022/10/06 05:19:07;;;;;;;8.48;5.22;;;23.70;54.40;;;;;;7649648;22;82179;-51
2022/10/06 05:22:09;;;;;;;8.43;5.05;;;23.70;54.30;;;;;;7646091;22;83021;-51
2022/10/06 05:25:10;;;;;;;11.70;5.03;;;23.80;54.30;;;;;;7648542;22;83021;-53
2022/10/06 05:28:10;;;;;;;18.35;4.63;;;23.70;54.20;;;;;;7647929;22;81915;-52
2022/10/06 05:31:11;;;;;;;7.85;4.80;;;23.70;54.10;;;;;;7674518;22;80395;-53
2022/10/06 05:34:12;;;;;;;13.52;5.85;;;23.80;54.10;;;;;;7647781;22;83159;-53
2022/10/06 05:37:13;;;;;;;10.18;5.03;;;23.80;54.00;;;;;;7649542;22;82384;-59
2022/10/06 05:40:14;;;;;;;10.20;5.43;;;23.80;54.00;;;;;;7653042;22;82965;-59
2022/10/06 05:43:14;;;;;;;12.18;5.28;;;23.80;53.90;;;;;;7625627;22;83464;-59
2022/10/06 05:46:23;;;;;;;13.20;5.68;;;23.80;53.80;;;;;;7647428;22;81274;-58
2022/10/06 05:49:24;;;;;;;9.85;4.90;;;23.80;53.80;;;;;;7653968;22;83164;-58
2022/10/06 05:52:30;;;;;;;9.18;5.68;;;23.90;53.60;;;;;;7650302;22;82777;-58
2022/10/06 05:55:31;;;;;;;9.55;5.70;;;23.80;53.50;;;;;;7649961;22;82142;-58
2022/10/06 05:58:31;;;;;;;9.40;5.68;;;23.80;53.40;;;;;;7677280;22;80129;-58
2022/10/06 06:01:33;;;;;;;8.30;4.85;;;23.90;53.30;;;;;;7678041;22;80260;-58
2022/10/06 06:04:34;;;;;;;12.90;5.65;;;23.90;53.30;;;;;;7648846;22;81901;-59
2022/10/06 06:07:35;;;;;;;7.80;5.20;;;23.90;53.30;;;;;;7651689;22;82471;-60
2022/10/06 06:10:36;;;;;;;11.55;6.40;;;23.90;53.30;;;;;;7680027;22;81843;-58
2022/10/06 06:13:36;;;;;;;9.88;5.70;;;23.90;53.30;;;;;;7682219;22;80599;-58
2022/10/06 06:16:41;;;;;;;9.80;5.57;;;23.90;53.20;;;;;;7668722;22;81926;-59
2022/10/06 06:19:42;;;;;;;9.82;6.32;;;23.90;53.10;;;;;;7655399;22;82997;-58
2022/10/06 06:22:42;;;;;;;30.05;13.55;;;24.00;53.20;;;;;;7654350;22;83062;-58
2022/10/06 06:25:44;;;;;;;97.95;48.45;;;23.90;52.50;;;;;;7652295;22;88089;-60
2022/10/06 06:28:49;;;;;;;140.73;72.10;;;23.80;52.10;;;;;;7676368;22;84216;-60
2022/10/06 06:31:51;;;;;;;;;;;23.80;51.80;;;;;;7648118;22;85571;-59
2022/10/06 06:34:51;;;;;;;293.75;144.82;;;23.70;51.70;;;;;;7660599;22;86096;-58
2022/10/06 06:37:52;;;;;;;196.27;95.20;;;23.70;51.50;;;;;;7646532;22;85903;-58
2022/10/06 06:40:53;;;;;;;129.80;67.38;;;23.70;51.60;;;;;;7676848;22;85693;-58
2022/10/06 06:43:54;;;;;;;114.78;53.70;;;23.70;51.30;;;;;;7651565;22;86053;-59
2022/10/06 06:47:03;;;;;;;90.50;42.22;;;23.70;51.50;;;;;;7648667;22;85923;-59
2022/10/06 06:50:09;;;;;;;69.85;34.72;;;23.60;51.40;;;;;;7653565;22;84426;-59
2022/10/06 06:53:10;;;;;;;61.97;30.83;;;23.60;51.30;;;;;;7651233;22;85375;-55
2022/10/06 06:56:12;;;;;;;48.88;24.17;;;23.60;51.50;;;;;;7648951;22;85541;-55
2022/10/06 06:59:12;;;;;;;46.78;22.15;;;23.60;51.80;;;;;;7648815;22;85615;-56
2022/10/06 07:02:17;;;;;;;41.42;21.80;;;23.60;52.20;;;;;;7645153;22;90127;-59
2022/10/06 07:05:19;;;;;;;43.03;20.13;;;23.60;52.30;;;;;;7649640;22;85820;-55
2022/10/06 07:08:20;;;;;;;41.60;18.52;;;23.60;52.50;;;;;;7651319;22;84724;-56
2022/10/06 07:11:20;;;;;;;37.95;17.83;;;23.70;53.20;;;;;;7649686;22;86046;-59
2022/10/06 07:14:23;;;;;;;37.35;16.02;;;23.70;54.30;;;;;;7646405;22;83689;-60
2022/10/06 07:27:21;;;;;;;25.15;12.23;;;23.70;54.70;;;;;;7669641;22;82736;-55
2022/10/06 07:30:22;;;;;;;33.08;13.40;;;23.70;55.20;;;;;;7670845;22;83168;-52
2022/10/06 07:33:30;;;;;;;25.63;11.93;;;23.70;56.20;;;;;;7651309;22;85868;-55
2022/10/06 07:36:30;;;;;;;20.55;11.15;;;23.70;56.50;;;;;;7679235;22;83418;-55
2022/10/06 07:39:31;;;;;;;23.70;11.95;;;23.70;57.00;;;;;;7675428;22;84711;-54
2022/10/06 07:42:46;;;;;;;27.52;12.85;;;23.70;56.20;;;;;;7649543;22;85902;-54
2022/10/06 07:45:48;;;;;;;18.40;10.35;;;23.70;56.20;;;;;;7644097;22;86068;-54
2022/10/06 07:48:52;;;;;;;20.67;10.50;;;23.70;56.10;;;;;;7649518;22;85723;-54
2022/10/06 07:51:52;;;;;;;29.25;10.23;;;23.70;56.10;;;;;;7651219;22;85572;-52
2022/10/06 07:54:53;;;;;;;24.02;10.10;;;23.70;55.40;;;;;;7649341;22;85959;-55
2022/10/06 07:58:09;;;;;;;20.70;9.70;;;23.70;55.40;;;;;;7646638;22;87282;-53
2022/10/06 08:01:10;;;;;;;16.08;8.45;;;23.80;55.10;;;;;;7680286;22;82833;-55
2022/10/06 08:04:10;;;;;;;21.27;8.65;;;23.80;54.60;;;;;;7676517;22;80829;-52
2022/10/06 08:07:11;;;;;;;17.02;8.70;;;23.80;54.20;;;;;;7674756;22;80440;-53
2022/10/06 08:10:11;;;;;;;15.82;8.70;;;23.80;54.20;;;;;;7673092;22;80855;-54
2022/10/06 08:13:12;;;;;;;20.77;10.13;;;23.80;53.90;;;;;;7671236;22;80621;-54
2022/10/06 08:16:13;;;;;;;17.10;9.07;;;23.80;53.40;;;;;;7669867;22;83347;-53
2022/10/06 08:19:15;;;;;;;16.88;8.70;;;23.90;53.20;;;;;;7675550;22;82924;-54
2022/10/06 08:22:16;;;;;;;17.08;9.90;;;23.90;53.10;;;;;;7674665;22;82430;-54
2022/10/06 08:25:17;;;;;;;21.63;9.45;;;23.80;52.90;;;;;;7680556;22;80784;-58
2022/10/06 08:28:17;;;;;;;30.55;9.65;;;23.80;53.00;;;;;;7681329;22;80069;-57
2022/10/06 08:31:19;;;;;;;13.48;9.13;;;23.70;52.70;;;;;;7681621;22;80372;-52
2022/10/06 08:34:20;;;;;;;20.95;10.45;;;23.70;52.90;;;;;;7675824;22;81462;-57
2022/10/06 08:37:23;;;;;;;17.45;9.75;;;23.70;52.90;;;;;;7674989;22;82578;-62
2022/10/06 08:40:23;;;;;;;20.13;9.45;;;23.70;52.90;;;;;;7681624;22;82928;-56
2022/10/06 08:43:24;;;;;;;18.45;9.93;;;23.70;52.70;;;;;;7676048;22;80666;-58
2022/10/06 08:46:25;;;;;;;14.95;8.68;;;23.70;52.60;;;;;;7676130;22;80044;-58
2022/10/06 08:49:26;;;;;;;20.05;9.13;;;23.70;52.60;;;;;;7674839;22;81437;-59
2022/10/06 08:52:26;;;;;;;17.00;8.85;;;23.70;52.30;;;;;;7674423;22;80728;-58
2022/10/06 08:55:27;;;;;;;14.18;7.75;;;23.70;52.50;;;;;;7680256;22;80883;-56
2022/10/06 08:58:29;;;;;;;21.42;8.85;;;23.60;52.80;;;;;;7680562;22;79974;-55
2022/10/06 09:01:31;;;;;;;24.30;8.38;;;23.60;52.80;;;;;;7626531;22;1249794;-48
2022/10/06 09:04:33;;;;;;;20.95;6.97;;;23.70;53.00;;;;;;7680586;22;80616;-46
2022/10/06 09:07:33;;;;;;;14.00;7.13;;;23.50;53.10;;;;;;7682686;22;80112;-47
2022/10/06 09:10:34;;;;;;;10.80;6.40;;;23.60;53.20;;;;;;7680506;22;81128;-46
2022/10/06 09:13:34;;;;;;;11.80;6.43;;;23.60;53.10;;;;;;7681092;22;80739;-47
2022/10/06 09:16:35;;;;;;;13.23;6.18;;;23.60;53.00;;;;;;7683322;22;80218;-49
2022/10/06 09:19:36;;;;;;;16.13;5.82;;;23.70;53.10;;;;;;7682525;22;80481;-53
2022/10/06 09:22:36;;;;;;;11.57;6.85;;;23.70;53.00;;;;;;7677571;22;80381;-56
2022/10/06 09:25:37;;;;;;;13.77;6.95;;;23.70;53.00;;;;;;7679104;22;80408;-56
2022/10/06 09:28:37;;;;;;;10.00;6.22;;;23.70;53.10;;;;;;7678244;22;80495;-54
2022/10/06 09:31:38;;;;;;;9.93;6.10;;;23.70;53.30;;;;;;7679378;22;80986;-55
2022/10/06 09:34:39;;;;;;;13.57;6.47;;;23.70;53.20;;;;;;7680859;22;80178;-56
2022/10/06 09:37:39;;;;;;;13.27;6.05;;;23.70;53.50;;;;;;7680946;22;81155;-48
2022/10/06 09:40:43;;;;;;;13.82;5.80;;;23.80;53.70;;;;;;7655185;22;83148;-46
2022/10/06 09:43:43;;;;;;;12.20;5.30;;;23.90;53.80;;;;;;7681178;22;79937;-49
2022/10/06 09:46:44;;;;;;;11.38;5.68;;;23.90;53.40;;;;;;7682443;22;80870;-47
2022/10/06 09:49:45;;;;;;;11.45;5.20;;;24.00;53.20;;;;;;7642283;22;81508;-45
2022/10/06 09:52:46;;;;;;;10.88;5.13;;;24.10;53.00;;;;;;7677810;22;80857;-46
2022/10/06 09:55:47;;;;;;;7.53;5.05;;;24.20;53.00;;;;;;7680730;22;80345;-53
2022/10/06 09:58:47;;;;;;;11.10;5.30;;;24.30;52.90;;;;;;7681733;22;80312;-46
2022/10/06 10:01:48;;;;;;;11.38;5.03;;;24.40;52.90;;;;;;7682288;22;80263;-50
2022/10/06 10:04:48;;;;;;;12.60;4.95;;;24.40;53.30;;;;;;7677680;22;80442;-51
2022/10/06 10:07:49;;;;;;;10.05;4.80;;;24.50;53.60;;;;;;7681422;22;80532;-49
2022/10/06 10:10:49;;;;;;;7.43;4.50;;;24.60;53.60;;;;;;7679573;22;81998;-47
2022/10/06 10:13:50;;;;;;;7.63;4.90;;;24.70;53.70;;;;;;7682419;22;80333;-50
2022/10/06 10:16:51;;;;;;;7.15;4.45;;;24.80;53.70;;;;;;7679351;22;80521;-48
2022/10/06 10:19:54;;;;;;;10.43;5.45;;;24.80;53.50;;;;;;7673007;22;80377;-48
2022/10/06 10:22:55;;;;;;;14.07;5.50;;;24.90;53.60;;;;;;7667167;22;81091;-47
2022/10/06 10:25:57;;;;;;;6.55;4.43;;;25.00;53.20;;;;;;7673642;22;80237;-46
2022/10/06 10:28:57;;;;;;;7.72;4.55;;;25.10;53.10;;;;;;7671916;22;80247;-47
2022/10/06 10:31:58;;;;;;;8.85;4.05;;;25.10;53.10;;;;;;7671814;22;80797;-47
2022/10/06 10:34:59;;;;;;;10.07;4.80;;;25.20;53.20;;;;;;7678254;22;81052;-51
2022/10/06 10:38:00;;;;;;;10.52;4.25;;;25.30;53.10;;;;;;7677465;22;80363;-48
2022/10/06 10:41:01;;;;;;;8.77;4.75;;;25.30;53.10;;;;;;7681738;22;80296;-48
2022/10/06 10:44:02;;;;;;;11.23;4.20;;;25.40;53.10;;;;;;7680864;22;80677;-46
2022/10/06 10:47:02;;;;;;;10.80;4.30;;;25.50;53.00;;;;;;7680692;22;80513;-46
2022/10/06 10:50:03;;;;;;;6.05;3.75;;;25.40;52.60;;;;;;7683018;22;80902;-47
2022/10/06 10:53:03;;;;;;;8.52;3.95;;;25.40;52.40;;;;;;7681280;22;81230;-47
2022/10/06 10:56:05;;;;;;;14.07;3.75;;;25.40;52.20;;;;;;7683434;22;81280;-47
2022/10/06 10:59:06;;;;;;;6.30;3.95;;;25.40;52.30;;;;;;7679622;22;80302;-45
2022/10/06 11:02:06;;;;;;;16.00;4.55;;;25.40;52.30;;;;;;7680156;22;80304;-49
2022/10/06 11:05:09;;;;;;;5.40;3.45;;;25.50;52.40;;;;;;7682614;22;80043;-48
2022/10/06 11:08:10;;;;;;;6.60;3.78;;;25.50;52.40;;;;;;7680076;22;80860;-62
2022/10/06 11:11:11;;;;;;;13.20;4.50;;;25.50;52.50;;;;;;7684057;22;80270;-61
2022/10/06 11:14:11;;;;;;;10.10;3.50;;;25.60;52.20;;;;;;7653959;22;82126;-62
2022/10/06 11:17:12;;;;;;;7.88;3.50;;;25.70;52.50;;;;;;7681353;22;80530;-61
2022/10/06 11:20:12;;;;;;;7.78;3.58;;;25.70;52.20;;;;;;7681936;22;81472;-60
2022/10/06 11:23:13;;;;;;;5.93;3.35;;;25.70;51.90;;;;;;7673146;22;80683;-62
2022/10/06 11:26:13;;;;;;;7.88;3.65;;;25.80;52.10;;;;;;7676660;22;80181;-58
2022/10/06 11:29:14;;;;;;;5.53;3.63;;;25.80;52.20;;;;;;7681169;22;84575;-57
2022/10/06 11:32:14;;;;;;;17.33;4.10;;;25.90;52.30;;;;;;7653484;22;81447;-58
2022/10/06 11:35:15;;;;;;;9.15;3.58;;;25.90;52.20;;;;;;7672718;22;80975;-58
2022/10/06 11:38:16;;;;;;;4.13;3.05;;;25.90;52.20;;;;;;7675399;22;80815;-57
2022/10/06 11:41:16;;;;;;;7.60;3.90;;;25.90;52.10;;;;;;7674364;22;80772;-58
2022/10/06 11:44:17;;;;;;;10.82;3.88;;;26.00;52.30;;;;;;7677160;22;80501;-57
2022/10/06 11:47:18;;;;;;;5.53;3.47;;;26.00;52.00;;;;;;7672720;22;80832;-59
2022/10/06 11:50:19;;;;;;;10.18;4.40;;;26.00;52.00;;;;;;7674209;22;81067;-59
2022/10/06 11:53:19;;;;;;;5.45;3.63;;;26.00;51.80;;;;;;7673669;22;80490;-59
2022/10/06 11:56:20;;;;;;;8.80;4.30;;;26.10;52.00;;;;;;7675020;22;80571;-59
2022/10/06 11:59:20;;;;;;;9.27;4.53;;;26.10;52.00;;;;;;7671038;22;81585;-57
2022/10/06 12:02:21;;;;;;;8.68;4.35;;;26.10;51.90;;;;;;7672471;22;80866;-58
2022/10/06 12:05:21;;;;;;;7.55;4.22;;;26.10;51.80;;;;;;7673874;22;81380;-64
2022/10/06 12:08:22;;;;;;;9.70;4.30;;;26.10;51.70;;;;;;7648930;22;82789;-62
2022/10/06 12:11:22;;;;;;;5.63;3.70;;;26.10;51.90;;;;;;7674461;22;80530;-63
2022/10/06 12:14:23;;;;;;;6.30;3.78;;;26.20;52.00;;;;;;7676210;22;81617;-62
2022/10/06 12:17:24;;;;;;;6.65;3.55;;;26.20;51.90;;;;;;7681026;22;83976;-60
2022/10/06 12:20:24;;;;;;;7.43;4.00;;;26.20;52.10;;;;;;7674398;22;80268;-61
2022/10/06 12:23:25;;;;;;;6.97;4.55;;;26.20;52.10;;;;;;7674660;22;81718;-59
2022/10/06 12:26:25;;;;;;;7.57;4.15;;;26.10;52.40;;;;;;7683443;22;81057;-58
2022/10/06 12:29:26;;;;;;;9.82;4.57;;;26.10;52.10;;;;;;7680213;22;79980;-58
2022/10/06 12:32:26;;;;;;;6.80;3.95;;;26.10;52.20;;;;;;7677928;22;80394;-59
2022/10/06 12:35:27;;;;;;;10.15;4.35;;;26.10;52.10;;;;;;7680017;22;81852;-58
2022/10/06 12:38:27;;;;;;;16.10;4.90;;;26.00;52.10;;;;;;7680163;22;81612;-59
2022/10/06 12:41:28;;;;;;;6.75;3.90;;;26.00;51.90;;;;;;7654165;22;83221;-46
2022/10/06 12:44:28;;;;;;;6.63;4.13;;;25.90;52.40;;;;;;7675993;22;81459;-54
2022/10/06 12:47:29;;;;;;;9.05;3.85;;;25.90;52.40;;;;;;7681947;22;80253;-51
2022/10/06 12:50:30;;;;;;;6.78;4.43;;;25.80;52.20;;;;;;7680728;22;80928;-55
2022/10/06 12:53:33;;;;;;;15.88;3.92;;;25.70;52.50;;;;;;7680676;22;80365;-53
2022/10/06 12:56:34;;;;;;;6.93;3.95;;;25.70;52.70;;;;;;7678233;22;80707;-44
2022/10/06 12:59:37;;;;;;;12.70;4.32;;;25.70;53.00;;;;;;7679324;22;80210;-57
2022/10/06 13:02:37;;;;;;;9.93;4.10;;;25.60;53.20;;;;;;7679134;22;80447;-57
2022/10/06 13:05:38;;;;;;;14.88;4.82;;;25.60;53.50;;;;;;7680690;22;80331;-58
2022/10/06 13:08:38;;;;;;;5.65;3.65;;;25.50;53.50;;;;;;7683275;22;80494;-57
2022/10/06 13:11:39;;;;;;;6.38;3.80;;;25.50;53.60;;;;;;7684085;22;80933;-59
2022/10/06 13:14:40;;;;;;;9.55;4.10;;;25.50;53.60;;;;;;7677314;22;80720;-57
2022/10/06 13:17:40;;;;;;;9.02;3.70;;;25.70;53.60;;;;;;7681294;22;81345;-58
2022/10/06 13:20:41;;;;;;;9.57;4.50;;;25.70;53.60;;;;;;7681683;22;80039;-59
2022/10/06 13:23:41;;;;;;;8.77;3.92;;;25.70;53.70;;;;;;7682930;22;80290;-59
2022/10/06 13:26:42;;;;;;;9.25;4.50;;;25.80;53.70;;;;;;7680880;22;80569;-59
2022/10/06 13:29:42;;;;;;;6.72;4.00;;;25.80;53.70;;;;;;7677732;22;81228;-58
2022/10/06 13:32:43;;;;;;;13.00;4.15;;;25.80;53.60;;;;;;7674817;22;80256;-57
2022/10/06 13:35:43;;;;;;;8.73;4.78;;;25.80;53.70;;;;;;7675220;22;80982;-58
2022/10/06 13:38:45;;;;;;;10.40;4.60;;;25.80;53.60;;;;;;7679579;22;80416;-57
2022/10/06 13:41:46;;;;;;;11.93;4.68;;;25.90;53.50;;;;;;7681301;22;81016;-57
2022/10/06 13:44:47;;;;;;;11.02;4.90;;;25.90;53.70;;;;;;7680144;22;80133;-58
2022/10/06 13:47:48;;;;;;;11.23;5.18;;;25.90;53.70;;;;;;7676410;22;80282;-58
2022/10/06 13:50:48;;;;;;;8.93;5.07;;;25.90;53.60;;;;;;7684114;22;80123;-58
2022/10/06 13:53:49;;;;;;;9.77;5.97;;;25.90;53.50;;;;;;7680799;22;80299;-55
2022/10/06 13:56:50;;;;;;;13.50;4.93;;;25.90;53.50;;;;;;7679150;22;80366;-57
2022/10/06 13:59:50;;;;;;;11.80;5.38;;;25.90;53.50;;;;;;7685010;22;81702;-57
2022/10/06 14:02:51;;;;;;;12.55;5.72;;;25.90;53.60;;;;;;7674929;22;80391;-57
2022/10/06 14:05:51;;;;;;;9.15;6.07;;;25.90;53.70;;;;;;7678134;22;80396;-57
2022/10/06 14:08:52;;;;;;;180.98;89.78;;;25.90;54.20;;;;;;7681665;22;80826;-58
2022/10/06 14:11:53;;;;;;;267.42;139.20;;;25.90;53.60;;;;;;7679832;22;83147;-64
2022/10/06 14:14:53;;;;;;;319.95;163.52;;;26.00;53.60;;;;;;7669653;22;86571;-62
2022/10/06 14:17:54;;;;;;;228.05;111.65;;;25.90;53.60;;;;;;7673742;22;85459;-62
2022/10/06 14:20:55;;;;;;;156.00;83.80;;;25.90;53.90;;;;;;7675612;22;85883;-61
2022/10/06 14:23:56;;;;;;;136.45;67.75;;;25.90;54.00;;;;;;7673716;22;85292;-62
2022/10/06 14:26:57;;;;;;;120.20;60.33;;;25.80;53.90;;;;;;7667738;22;82820;-62
2022/10/06 14:29:57;;;;;;;108.55;54.50;;;25.70;54.60;;;;;;7673913;22;83436;-54
2022/10/06 14:32:58;;;;;;;95.57;48.50;;;25.70;54.30;;;;;;7676027;22;83152;-54
2022/10/06 14:35:58;;;;;;;87.43;45.50;;;25.70;54.50;;;;;;7676519;22;82985;-55
2022/10/06 14:38:59;;;;;;;79.18;39.60;;;25.60;54.60;;;;;;7675487;22;90472;-55
2022/10/06 14:42:00;;;;;;;70.22;35.92;;;25.60;54.80;;;;;;7679050;22;82834;-54
2022/10/06 14:45:01;;;;;;;68.35;34.30;;;25.60;54.70;;;;;;7676610;22;84375;-55
2022/10/06 14:48:03;;;;;;;60.33;31.38;;;25.50;54.80;;;;;;7676846;22;83060;-55
2022/10/06 14:51:03;;;;;;;54.60;28.63;;;25.50;55.00;;;;;;7679134;22;83238;-56
2022/10/06 14:54:04;;;;;;;54.38;27.48;;;25.50;55.20;;;;;;7674562;22;90134;-51
2022/10/06 14:57:05;;;;;;;48.05;23.05;;;25.40;55.50;;;;;;7673132;22;84127;-54
2022/10/06 15:00:07;;;;;;;42.40;23.00;;;25.40;55.50;;;;;;7674839;22;83713;-57
2022/10/06 15:03:08;;;;;;;39.58;20.13;;;25.30;55.50;;;;;;7675219;22;83581;-54
2022/10/06 15:09:28;;;;;;;37.67;18.48;;;25.30;55.60;;;;;;7670177;22;83295;-64
2022/10/06 15:12:29;;;;;;;36.70;18.58;;;25.20;56.30;;;;;;7667205;22;83605;-60
2022/10/06 15:15:32;;;;;;;34.65;18.10;;;25.30;55.70;;;;;;7670270;22;83685;-62
2022/10/06 15:18:33;;;;;;;30.58;15.07;;;25.20;55.80;;;;;;7670944;22;83138;-57
2022/10/06 15:21:33;;;;;;;29.45;14.25;;;25.20;56.20;;;;;;7668162;22;82880;-55
2022/10/06 15:24:34;;;;;;;24.90;14.38;;;25.20;56.00;;;;;;7670853;22;83073;-57
2022/10/06 15:30:53;;;;;;;22.55;12.43;;;25.20;56.30;;;;;;7672818;22;83100;-58
2022/10/06 15:33:54;;;;;;;22.63;11.25;;;25.20;56.60;;;;;;7672892;22;83244;-51
2022/10/06 15:36:55;;;;;;;17.60;9.98;;;25.20;56.50;;;;;;7674971;22;83517;-56
2022/10/06 15:39:56;;;;;;;14.20;8.10;;;25.20;56.30;;;;;;7676092;22;83765;-57
2022/10/06 15:42:56;;;;;;;16.45;8.75;;;25.10;56.40;;;;;;7679181;22;81940;-56
2022/10/06 15:45:57;;;;;;;12.02;6.93;;;25.10;56.60;;;;;;7677132;22;81044;-55
2022/10/06 15:49:00;;;;;;;19.27;7.20;;;25.10;56.70;;;;;;7678370;22;80550;-55
2022/10/06 15:52:01;;;;;;;14.95;6.97;;;25.10;56.90;;;;;;7676752;22;81779;-63